sensor_id;sensor_type;location;lat;lon;timestamp;pressure;altitude;pressure_sealevel;temperature;humidity
27146;BME280;17980;51.744;7.190;2022-08-01T00:02:22;101074.39;;;23.98;100.00
27146;BME280;17980;51.744;7.190;2022-08-01T00:04:49;101072.77;;;24.28;100.00
27146;BME280;17980;51.744;7.190;2022-08-01T00:07:16;101073.83;;;24.54;100.00
27146;BME280;17980;51.744;7.190;2022-08-01T00:09:44;101076.77;;;24.60;100.00
27146;BME280;17980;51.744;7.190;2022-08-01T00:12:11;101083.27;;;24.53;100.00
27146;BME280;17980;51.744;7.190;2022-08-01T00:14:38;101077.42;;;24.24;100.00
27146;BME280;17980;51.744;7.190;2022-08-01T00:17:06;101070.91;;;24.12;100.00
27146;BME280;17980;51.744;7.190;2022-08-01T00:19:33;101071.06;;;24.36;100.00
27146;BME280;17980;51.744;7.190;2022-08-01T00:22:01;101072.92;;;24.23;100.00
27146;BME280;17980;51.744;7.190;2022-08-01T00:24:28;101071.98;;;24.48;100.00
27146;BME280;17980;51.744;7.190;2022-08-01T00:26:55;101072.91;;;24.61;100.00
27146;BME280;17980;51.744;7.190;2022-08-01T00:29:23;101070.33;;;24.59;100.00
27146;BME280;17980;51.744;7.190;2022-08-01T00:31:50;101072.91;;;24.61;100.00
27146;BME280;17980;51.744;7.190;2022-08-01T00:34:17;101073.59;;;24.56;100.00
27146;BME280;17980;51.744;7.190;2022-08-01T00:36:44;101077.09;;;24.51;100.00
27146;BME280;17980;51.744;7.190;2022-08-01T00:39:13;101079.95;;;24.63;100.00
27146;BME280;17980;51.744;7.190;2022-08-01T00:41:40;101079.48;;;24.57;100.00
27146;BME280;17980;51.744;7.190;2022-08-01T00:44:07;101077.16;;;24.35;100.00
27146;BME280;17980;51.744;7.190;2022-08-01T00:46:35;101075.11;;;24.03;100.00
27146;BME280;17980;51.744;7.190;2022-08-01T00:49:02;101071.69;;;24.19;100.00
27146;BME280;17980;51.744;7.190;2022-08-01T00:51:30;101073.03;;;24.56;100.00
27146;BME280;17980;51.744;7.190;2022-08-01T00:53:57;101076.02;;;24.62;100.00
27146;BME280;17980;51.744;7.190;2022-08-01T00:56:27;101079.04;;;24.41;100.00
27146;BME280;17980;51.744;7.190;2022-08-01T00:58:55;101078.03;;;24.27;100.00
27146;BME280;17980;51.744;7.190;2022-08-01T01:01:23;101076.03;;;24.24;100.00
27146;BME280;17980;51.744;7.190;2022-08-01T01:03:51;101077.64;;;24.41;100.00
27146;BME280;17980;51.744;7.190;2022-08-01T01:06:44;101075.17;;;24.33;100.00
27146;BME280;17980;51.744;7.190;2022-08-01T01:09:23;101073.77;;;24.05;100.00
27146;BME280;17980;51.744;7.190;2022-08-01T01:14:38;101078.69;;;23.85;100.00
27146;BME280;17980;51.744;7.190;2022-08-01T01:17:08;101078.58;;;23.89;100.00
27146;BME280;17980;51.744;7.190;2022-08-01T01:19:39;101070.45;;;23.87;100.00
27146;BME280;17980;51.744;7.190;2022-08-01T01:25:09;101073.84;;;23.55;100.00
27146;BME280;17980;51.744;7.190;2022-08-01T01:27:48;101074.08;;;23.63;100.00
27146;BME280;17980;51.744;7.190;2022-08-01T01:30:11;101075.61;;;23.59;100.00
27146;BME280;17980;51.744;7.190;2022-08-01T01:35:24;101080.31;;;23.83;100.00
27146;BME280;17980;51.744;7.190;2022-08-01T01:37:56;101082.32;;;23.85;100.00
27146;BME280;17980;51.744;7.190;2022-08-01T01:40:24;101079.04;;;23.35;100.00
27146;BME280;17980;51.744;7.190;2022-08-01T01:42:53;101086.61;;;23.37;100.00
27146;BME280;17980;51.744;7.190;2022-08-01T01:45:24;101094.30;;;23.26;100.00
27146;BME280;17980;51.744;7.190;2022-08-01T01:47:53;101097.95;;;23.11;100.00
27146;BME280;17980;51.744;7.190;2022-08-01T01:50:22;101089.80;;;22.93;100.00
27146;BME280;17980;51.744;7.190;2022-08-01T01:52:51;101093.28;;;23.36;100.00
27146;BME280;17980;51.744;7.190;2022-08-01T01:55:20;101087.95;;;23.44;100.00
27146;BME280;17980;51.744;7.190;2022-08-01T01:57:49;101099.88;;;23.42;100.00
27146;BME280;17980;51.744;7.190;2022-08-01T02:00:18;101089.48;;;23.56;100.00
27146;BME280;17980;51.744;7.190;2022-08-01T02:02:46;101091.11;;;23.64;100.00
27146;BME280;17980;51.744;7.190;2022-08-01T02:05:15;101089.43;;;23.72;100.00
27146;BME280;17980;51.744;7.190;2022-08-01T02:07:43;101087.72;;;23.62;100.00
27146;BME280;17980;51.744;7.190;2022-08-01T02:12:58;101086.94;;;23.64;100.00
27146;BME280;17980;51.744;7.190;2022-08-01T02:15:27;101086.33;;;23.62;100.00
27146;BME280;17980;51.744;7.190;2022-08-01T02:17:55;101078.58;;;23.64;100.00
27146;BME280;17980;51.744;7.190;2022-08-01T02:20:24;101083.86;;;23.72;100.00
27146;BME280;17980;51.744;7.190;2022-08-01T02:22:56;101081.33;;;23.54;100.00
27146;BME280;17980;51.744;7.190;2022-08-01T02:25:27;101078.98;;;23.67;100.00
27146;BME280;17980;51.744;7.190;2022-08-01T02:30:44;101088.73;;;23.67;100.00
27146;BME280;17980;51.744;7.190;2022-08-01T02:33:15;101088.19;;;23.77;100.00
27146;BME280;17980;51.744;7.190;2022-08-01T02:35:43;101092.39;;;23.86;100.00
27146;BME280;17980;51.744;7.190;2022-08-01T02:38:13;101097.97;;;23.86;100.00
27146;BME280;17980;51.744;7.190;2022-08-01T02:40:45;101099.27;;;23.75;100.00
27146;BME280;17980;51.744;7.190;2022-08-01T02:43:13;101099.05;;;23.76;100.00
27146;BME280;17980;51.744;7.190;2022-08-01T02:45:47;101098.43;;;23.83;100.00
27146;BME280;17980;51.744;7.190;2022-08-01T02:48:17;101098.92;;;23.64;100.00
27146;BME280;17980;51.744;7.190;2022-08-01T02:50:47;101097.47;;;23.62;100.00
27146;BME280;17980;51.744;7.190;2022-08-01T02:53:19;101094.36;;;23.35;100.00
27146;BME280;17980;51.744;7.190;2022-08-01T02:55:48;101094.45;;;23.47;100.00
27146;BME280;17980;51.744;7.190;2022-08-01T03:01:05;101096.16;;;23.39;100.00
27146;BME280;17980;51.744;7.190;2022-08-01T03:03:34;101094.27;;;23.33;100.00
27146;BME280;17980;51.744;7.190;2022-08-01T03:06:03;101097.09;;;23.26;100.00
27146;BME280;17980;51.744;7.190;2022-08-01T03:08:31;101093.25;;;23.52;100.00
27146;BME280;17980;51.744;7.190;2022-08-01T03:11:00;101099.03;;;23.26;100.00
27146;BME280;17980;51.744;7.190;2022-08-01T03:13:29;101094.22;;;23.40;100.00
27146;BME280;17980;51.744;7.190;2022-08-01T03:15:59;101098.44;;;23.01;100.00
27146;BME280;17980;51.744;7.190;2022-08-01T03:18:27;101097.11;;;23.03;100.00
27146;BME280;17980;51.744;7.190;2022-08-01T03:20:57;101100.16;;;22.79;100.00
27146;BME280;17980;51.744;7.190;2022-08-01T03:23:27;101103.91;;;22.98;100.00
27146;BME280;17980;51.744;7.190;2022-08-01T03:25:55;101106.00;;;22.71;100.00
27146;BME280;17980;51.744;7.190;2022-08-01T03:28:23;101109.15;;;22.97;100.00
27146;BME280;17980;51.744;7.190;2022-08-01T03:30:51;101110.98;;;22.78;100.00
27146;BME280;17980;51.744;7.190;2022-08-01T03:33:19;101114.39;;;22.80;100.00
27146;BME280;17980;51.744;7.190;2022-08-01T03:35:49;101105.59;;;22.83;100.00
27146;BME280;17980;51.744;7.190;2022-08-01T03:41:09;101104.39;;;23.11;100.00
27146;BME280;17980;51.744;7.190;2022-08-01T03:43:40;101113.62;;;23.05;100.00
27146;BME280;17980;51.744;7.190;2022-08-01T03:48:58;101116.08;;;23.36;100.00
27146;BME280;17980;51.744;7.190;2022-08-01T03:51:27;101115.72;;;23.10;100.00
27146;BME280;17980;51.744;7.190;2022-08-01T03:56:39;101110.89;;;23.14;100.00
27146;BME280;17980;51.744;7.190;2022-08-01T03:59:09;101111.25;;;23.02;100.00
27146;BME280;17980;51.744;7.190;2022-08-01T04:01:38;101116.11;;;22.97;100.00
27146;BME280;17980;51.744;7.190;2022-08-01T04:04:05;101117.24;;;23.53;100.00
27146;BME280;17980;51.744;7.190;2022-08-01T04:06:33;101121.05;;;23.18;100.00
27146;BME280;17980;51.744;7.190;2022-08-01T04:09:00;101119.36;;;23.26;100.00
27146;BME280;17980;51.744;7.190;2022-08-01T04:11:28;101115.66;;;23.39;100.00
27146;BME280;17980;51.744;7.190;2022-08-01T04:13:55;101115.20;;;23.42;100.00
27146;BME280;17980;51.744;7.190;2022-08-01T04:16:24;101116.69;;;23.79;100.00
27146;BME280;17980;51.744;7.190;2022-08-01T04:18:51;101116.37;;;23.78;100.00
27146;BME280;17980;51.744;7.190;2022-08-01T04:21:22;101119.69;;;23.94;100.00
27146;BME280;17980;51.744;7.190;2022-08-01T04:23:51;101116.14;;;24.05;100.00
27146;BME280;17980;51.744;7.190;2022-08-01T04:26:20;101113.41;;;23.89;100.00
27146;BME280;17980;51.744;7.190;2022-08-01T04:28:49;101116.14;;;23.80;100.00
27146;BME280;17980;51.744;7.190;2022-08-01T04:33:57;101116.73;;;23.63;100.00
27146;BME280;17980;51.744;7.190;2022-08-01T04:36:27;101124.82;;;23.55;100.00
27146;BME280;17980;51.744;7.190;2022-08-01T04:38:58;101123.64;;;23.45;100.00
27146;BME280;17980;51.744;7.190;2022-08-01T04:41:26;101128.06;;;23.52;100.00
27146;BME280;17980;51.744;7.190;2022-08-01T04:43:54;101133.17;;;23.55;100.00
27146;BME280;17980;51.744;7.190;2022-08-01T04:46:22;101140.46;;;23.57;100.00
27146;BME280;17980;51.744;7.190;2022-08-01T04:48:51;101141.74;;;23.45;100.00
27146;BME280;17980;51.744;7.190;2022-08-01T04:51:18;101142.17;;;23.58;100.00
27146;BME280;17980;51.744;7.190;2022-08-01T04:53:48;101142.19;;;23.67;100.00
27146;BME280;17980;51.744;7.190;2022-08-01T04:56:18;101148.75;;;24.04;100.00
27146;BME280;17980;51.744;7.190;2022-08-01T04:58:46;101150.27;;;23.75;100.00
27146;BME280;17980;51.744;7.190;2022-08-01T05:01:13;101149.73;;;23.92;100.00
27146;BME280;17980;51.744;7.190;2022-08-01T05:03:40;101154.19;;;24.27;100.00
27146;BME280;17980;51.744;7.190;2022-08-01T05:08:48;101161.06;;;24.52;98.43
27146;BME280;17980;51.744;7.190;2022-08-01T05:11:15;101156.28;;;24.50;98.32
27146;BME280;17980;51.744;7.190;2022-08-01T05:13:42;101152.63;;;24.40;98.52
27146;BME280;17980;51.744;7.190;2022-08-01T05:16:09;101158.59;;;24.53;97.86
27146;BME280;17980;51.744;7.190;2022-08-01T05:18:37;101154.53;;;24.65;96.87
27146;BME280;17980;51.744;7.190;2022-08-01T05:21:04;101158.36;;;24.55;97.65
27146;BME280;17980;51.744;7.190;2022-08-01T05:23:31;101164.02;;;24.20;99.47
27146;BME280;17980;51.744;7.190;2022-08-01T05:25:59;101158.56;;;24.07;100.00
27146;BME280;17980;51.744;7.190;2022-08-01T05:28:26;101163.44;;;24.02;100.00
27146;BME280;17980;51.744;7.190;2022-08-01T05:30:53;101165.96;;;24.20;99.84
27146;BME280;17980;51.744;7.190;2022-08-01T05:33:21;101167.05;;;24.37;98.37
27146;BME280;17980;51.744;7.190;2022-08-01T05:35:49;101171.94;;;24.33;98.59
27146;BME280;17980;51.744;7.190;2022-08-01T05:38:16;101169.13;;;24.42;97.62
27146;BME280;17980;51.744;7.190;2022-08-01T05:40:43;101175.66;;;24.36;98.60
27146;BME280;17980;51.744;7.190;2022-08-01T05:43:10;101177.11;;;24.48;97.33
27146;BME280;17980;51.744;7.190;2022-08-01T05:45:38;101175.14;;;24.02;99.22
27146;BME280;17980;51.744;7.190;2022-08-01T05:48:05;101176.88;;;24.31;98.22
27146;BME280;17980;51.744;7.190;2022-08-01T05:50:34;101173.94;;;23.91;100.00
27146;BME280;17980;51.744;7.190;2022-08-01T05:53:01;101176.05;;;23.80;100.00
27146;BME280;17980;51.744;7.190;2022-08-01T05:55:28;101171.05;;;24.04;99.93
27146;BME280;17980;51.744;7.190;2022-08-01T05:57:56;101173.30;;;24.23;99.04
27146;BME280;17980;51.744;7.190;2022-08-01T06:00:23;101176.77;;;24.10;98.50
27146;BME280;17980;51.744;7.190;2022-08-01T06:02:50;101177.00;;;23.99;99.74
27146;BME280;17980;51.744;7.190;2022-08-01T06:05:18;101174.59;;;24.02;100.00
27146;BME280;17980;51.744;7.190;2022-08-01T06:07:45;101177.28;;;24.99;95.60
27146;BME280;17980;51.744;7.190;2022-08-01T06:10:12;101180.42;;;25.12;93.78
27146;BME280;17980;51.744;7.190;2022-08-01T06:12:40;101175.27;;;25.49;90.57
27146;BME280;17980;51.744;7.190;2022-08-01T06:15:08;101176.08;;;25.07;93.30
27146;BME280;17980;51.744;7.190;2022-08-01T06:17:36;101176.13;;;24.51;95.45
27146;BME280;17980;51.744;7.190;2022-08-01T06:20:04;101180.14;;;24.83;94.89
27146;BME280;17980;51.744;7.190;2022-08-01T06:22:39;101185.86;;;24.98;94.12
27146;BME280;17980;51.744;7.190;2022-08-01T06:25:09;101183.06;;;24.98;92.83
27146;BME280;17980;51.744;7.190;2022-08-01T06:27:36;101189.07;;;24.73;94.70
27146;BME280;17980;51.744;7.190;2022-08-01T06:30:06;101184.06;;;25.03;92.31
27146;BME280;17980;51.744;7.190;2022-08-01T06:32:34;101184.77;;;25.08;91.32
27146;BME280;17980;51.744;7.190;2022-08-01T06:35:02;101187.93;;;25.12;91.34
27146;BME280;17980;51.744;7.190;2022-08-01T06:37:29;101182.39;;;25.33;90.63
27146;BME280;17980;51.744;7.190;2022-08-01T06:40:01;101180.91;;;25.60;89.56
27146;BME280;17980;51.744;7.190;2022-08-01T06:45:15;101188.78;;;25.97;87.71
27146;BME280;17980;51.744;7.190;2022-08-01T06:47:44;101195.23;;;25.43;90.31
27146;BME280;17980;51.744;7.190;2022-08-01T06:50:12;101188.05;;;24.96;95.07
27146;BME280;17980;51.744;7.190;2022-08-01T06:52:41;101190.44;;;25.01;94.52
27146;BME280;17980;51.744;7.190;2022-08-01T06:55:09;101188.73;;;25.00;94.53
27146;BME280;17980;51.744;7.190;2022-08-01T06:57:42;101194.16;;;24.58;97.61
27146;BME280;17980;51.744;7.190;2022-08-01T07:00:09;101195.98;;;24.62;98.02
27146;BME280;17980;51.744;7.190;2022-08-01T07:02:38;101189.39;;;24.74;96.47
27146;BME280;17980;51.744;7.190;2022-08-01T07:05:06;101193.65;;;25.35;94.09
27146;BME280;17980;51.744;7.190;2022-08-01T07:07:34;101197.58;;;24.97;94.87
27146;BME280;17980;51.744;7.190;2022-08-01T07:10:01;101197.27;;;25.05;94.93
27146;BME280;17980;51.744;7.190;2022-08-01T07:12:29;101194.13;;;25.32;93.05
27146;BME280;17980;51.744;7.190;2022-08-01T07:14:57;101190.03;;;25.47;92.62
27146;BME280;17980;51.744;7.190;2022-08-01T07:17:24;101186.44;;;25.49;91.50
27146;BME280;17980;51.744;7.190;2022-08-01T07:19:52;101185.95;;;25.31;91.41
27146;BME280;17980;51.744;7.190;2022-08-01T07:22:21;101183.02;;;25.89;89.39
27146;BME280;17980;51.744;7.190;2022-08-01T07:24:48;101182.41;;;25.99;88.30
27146;BME280;17980;51.744;7.190;2022-08-01T07:27:15;101181.36;;;27.77;83.49
27146;BME280;17980;51.744;7.190;2022-08-01T07:29:43;101179.01;;;28.61;77.71
27146;BME280;17980;51.744;7.190;2022-08-01T07:32:10;101183.88;;;27.93;78.19
27146;BME280;17980;51.744;7.190;2022-08-01T07:37:19;101190.05;;;27.01;83.20
27146;BME280;17980;51.744;7.190;2022-08-01T07:39:46;101188.36;;;26.88;82.96
27146;BME280;17980;51.744;7.190;2022-08-01T07:42:18;101196.05;;;27.36;82.27
27146;BME280;17980;51.744;7.190;2022-08-01T07:44:45;101184.72;;;27.93;79.58
27146;BME280;17980;51.744;7.190;2022-08-01T07:47:13;101188.84;;;28.61;75.41
27146;BME280;17980;51.744;7.190;2022-08-01T07:49:40;101189.44;;;28.24;76.69
27146;BME280;17980;51.744;7.190;2022-08-01T07:52:08;101198.70;;;27.91;77.03
27146;BME280;17980;51.744;7.190;2022-08-01T07:54:35;101194.80;;;27.92;76.60
27146;BME280;17980;51.744;7.190;2022-08-01T07:57:03;101205.14;;;26.61;81.66
27146;BME280;17980;51.744;7.190;2022-08-01T07:59:31;101207.05;;;25.78;85.44
27146;BME280;17980;51.744;7.190;2022-08-01T08:01:59;101204.55;;;26.48;84.04
27146;BME280;17980;51.744;7.190;2022-08-01T08:04:26;101209.67;;;28.46;75.81
27146;BME280;17980;51.744;7.190;2022-08-01T08:06:54;101212.28;;;28.13;75.48
27146;BME280;17980;51.744;7.190;2022-08-01T08:09:21;101214.94;;;27.40;77.97
27146;BME280;17980;51.744;7.190;2022-08-01T08:11:49;101213.34;;;27.32;78.80
27146;BME280;17980;51.744;7.190;2022-08-01T08:14:17;101208.22;;;30.19;69.83
27146;BME280;17980;51.744;7.190;2022-08-01T08:16:45;101225.12;;;31.15;65.11
27146;BME280;17980;51.744;7.190;2022-08-01T08:19:12;101215.59;;;30.28;67.51
27146;BME280;17980;51.744;7.190;2022-08-01T08:21:40;101222.16;;;28.75;72.23
27146;BME280;17980;51.744;7.190;2022-08-01T08:24:08;101218.63;;;27.92;75.53
27146;BME280;17980;51.744;7.190;2022-08-01T08:29:41;101216.39;;;30.20;70.16
27146;BME280;17980;51.744;7.190;2022-08-01T08:34:48;101213.81;;;33.85;56.82
27146;BME280;17980;51.744;7.190;2022-08-01T08:37:16;101212.66;;;32.93;57.82
27146;BME280;17980;51.744;7.190;2022-08-01T08:39:44;101220.96;;;31.51;60.34
27146;BME280;17980;51.744;7.190;2022-08-01T08:42:11;101222.98;;;31.61;61.54
27146;BME280;17980;51.744;7.190;2022-08-01T08:44:39;101218.30;;;34.20;55.18
27146;BME280;17980;51.744;7.190;2022-08-01T08:47:08;101220.73;;;32.22;58.09
27146;BME280;17980;51.744;7.190;2022-08-01T08:49:37;101231.03;;;29.85;64.22
27146;BME280;17980;51.744;7.190;2022-08-01T08:54:46;101237.99;;;28.08;70.73
27146;BME280;17980;51.744;7.190;2022-08-01T08:57:15;101233.23;;;27.94;72.41
27146;BME280;17980;51.744;7.190;2022-08-01T08:59:44;101250.95;;;26.82;77.72
27146;BME280;17980;51.744;7.190;2022-08-01T09:04:52;101265.41;;;25.65;81.18
27146;BME280;17980;51.744;7.190;2022-08-01T09:07:19;101266.35;;;25.38;83.26
27146;BME280;17980;51.744;7.190;2022-08-01T09:09:46;101272.09;;;25.34;83.39
27146;BME280;17980;51.744;7.190;2022-08-01T09:12:17;101266.30;;;24.61;86.15
27146;BME280;17980;51.744;7.190;2022-08-01T09:14:48;101270.55;;;24.73;85.16
27146;BME280;17980;51.744;7.190;2022-08-01T09:17:19;101280.97;;;24.94;86.91
27146;BME280;17980;51.744;7.190;2022-08-01T09:19:48;101272.86;;;25.32;84.90
27146;BME280;17980;51.744;7.190;2022-08-01T09:22:19;101289.47;;;27.85;77.22
27146;BME280;17980;51.744;7.190;2022-08-01T09:25:05;101283.44;;;28.41;71.73
27146;BME280;17980;51.744;7.190;2022-08-01T09:27:34;101284.37;;;27.53;72.58
27146;BME280;17980;51.744;7.190;2022-08-01T09:30:10;101290.84;;;27.27;74.79
27146;BME280;17980;51.744;7.190;2022-08-01T09:32:59;101289.27;;;28.20;71.46
27146;BME280;17980;51.744;7.190;2022-08-01T09:35:28;101292.59;;;28.03;70.42
27146;BME280;17980;51.744;7.190;2022-08-01T09:38:15;101285.89;;;30.50;64.89
27146;BME280;17980;51.744;7.190;2022-08-01T09:40:51;101287.50;;;30.05;64.10
27146;BME280;17980;51.744;7.190;2022-08-01T09:43:20;101287.80;;;29.54;66.59
27146;BME280;17980;51.744;7.190;2022-08-01T09:45:47;101294.03;;;28.56;69.45
27146;BME280;17980;51.744;7.190;2022-08-01T09:48:15;101305.63;;;27.94;70.68
27146;BME280;17980;51.744;7.190;2022-08-01T09:50:44;101297.94;;;28.36;69.87
27146;BME280;17980;51.744;7.190;2022-08-01T09:53:13;101300.45;;;29.82;66.31
27146;BME280;17980;51.744;7.190;2022-08-01T09:55:42;101309.83;;;31.00;62.18
27146;BME280;17980;51.744;7.190;2022-08-01T09:58:09;101312.47;;;29.47;64.66
27146;BME280;17980;51.744;7.190;2022-08-01T10:00:38;101315.20;;;27.67;70.39
27146;BME280;17980;51.744;7.190;2022-08-01T10:03:20;101319.56;;;28.21;69.43
27146;BME280;17980;51.744;7.190;2022-08-01T10:05:49;101319.23;;;29.07;66.73
27146;BME280;17980;51.744;7.190;2022-08-01T10:08:16;101318.77;;;28.06;70.81
27146;BME280;17980;51.744;7.190;2022-08-01T10:11:05;101317.67;;;29.36;65.33
27146;BME280;17980;51.744;7.190;2022-08-01T10:13:33;101315.66;;;31.34;60.66
27146;BME280;17980;51.744;7.190;2022-08-01T10:16:01;101318.05;;;30.24;62.63
27146;BME280;17980;51.744;7.190;2022-08-01T10:18:31;101321.87;;;31.38;59.62
27146;BME280;17980;51.744;7.190;2022-08-01T10:21:01;101323.23;;;30.08;63.86
27146;BME280;17980;51.744;7.190;2022-08-01T10:26:10;101328.17;;;27.42;74.05
27146;BME280;17980;51.744;7.190;2022-08-01T10:28:39;101327.58;;;27.83;73.00
27146;BME280;17980;51.744;7.190;2022-08-01T10:31:08;101335.78;;;27.32;72.29
27146;BME280;17980;51.744;7.190;2022-08-01T10:36:15;101325.99;;;27.20;74.39
27146;BME280;17980;51.744;7.190;2022-08-01T10:38:44;101327.81;;;25.99;76.68
27146;BME280;17980;51.744;7.190;2022-08-01T10:41:13;101336.97;;;26.84;74.31
27146;BME280;17980;51.744;7.190;2022-08-01T10:43:42;101339.58;;;27.81;71.95
27146;BME280;17980;51.744;7.190;2022-08-01T10:46:10;101339.98;;;27.58;70.86
27146;BME280;17980;51.744;7.190;2022-08-01T10:51:31;101335.27;;;25.74;77.93
27146;BME280;17980;51.744;7.190;2022-08-01T10:54:02;101335.27;;;25.35;79.96
27146;BME280;17980;51.744;7.190;2022-08-01T10:56:43;101336.20;;;25.68;79.38
27146;BME280;17980;51.744;7.190;2022-08-01T10:59:15;101348.63;;;25.93;75.79
27146;BME280;17980;51.744;7.190;2022-08-01T11:04:33;101340.08;;;27.35;72.99
27146;BME280;17980;51.744;7.190;2022-08-01T11:07:06;101345.08;;;26.17;75.88
27146;BME280;17980;51.744;7.190;2022-08-01T11:09:42;101336.47;;;27.37;72.97
27146;BME280;17980;51.744;7.190;2022-08-01T11:12:11;101334.47;;;28.07;70.25
27146;BME280;17980;51.744;7.190;2022-08-01T11:18:01;101337.68;;;27.70;71.10
27146;BME280;17980;51.744;7.190;2022-08-01T11:20:30;101335.52;;;28.17;69.87
27146;BME280;17980;51.744;7.190;2022-08-01T11:23:30;101334.74;;;28.22;68.04
27146;BME280;17980;51.744;7.190;2022-08-01T11:26:10;101329.97;;;27.62;69.98
27146;BME280;17980;51.744;7.190;2022-08-01T11:28:39;101330.06;;;27.27;69.44
27146;BME280;17980;51.744;7.190;2022-08-01T11:31:31;101327.20;;;26.86;69.04
27146;BME280;17980;51.744;7.190;2022-08-01T11:34:00;101331.84;;;26.92;70.88
27146;BME280;17980;51.744;7.190;2022-08-01T11:36:31;101336.41;;;27.22;71.07
27146;BME280;17980;51.744;7.190;2022-08-01T11:42:20;101336.39;;;27.75;68.47
27146;BME280;17980;51.744;7.190;2022-08-01T11:44:50;101328.98;;;27.83;67.94
27146;BME280;17980;51.744;7.190;2022-08-01T11:50:18;101323.05;;;27.39;69.66
27146;BME280;17980;51.744;7.190;2022-08-01T11:55:41;101328.80;;;26.70;72.02
27146;BME280;17980;51.744;7.190;2022-08-01T11:58:10;101328.42;;;26.67;71.03
27146;BME280;17980;51.744;7.190;2022-08-01T12:00:39;101327.80;;;26.08;72.60
27146;BME280;17980;51.744;7.190;2022-08-01T12:03:09;101328.80;;;25.83;71.69
27146;BME280;17980;51.744;7.190;2022-08-01T12:08:31;101329.56;;;26.44;70.93
27146;BME280;17980;51.744;7.190;2022-08-01T12:11:02;101329.61;;;25.72;73.66
27146;BME280;17980;51.744;7.190;2022-08-01T12:16:24;101327.20;;;26.86;70.73
27146;BME280;17980;51.744;7.190;2022-08-01T12:18:56;101326.38;;;26.41;72.04
27146;BME280;17980;51.744;7.190;2022-08-01T12:21:24;101328.78;;;26.58;72.30
27146;BME280;17980;51.744;7.190;2022-08-01T12:24:02;101327.70;;;26.26;72.70
27146;BME280;17980;51.744;7.190;2022-08-01T12:26:41;101332.72;;;27.19;70.45
27146;BME280;17980;51.744;7.190;2022-08-01T12:29:10;101339.74;;;27.89;65.11
27146;BME280;17980;51.744;7.190;2022-08-01T12:31:39;101344.44;;;27.71;66.24
27146;BME280;17980;51.744;7.190;2022-08-01T12:34:25;101335.43;;;27.83;65.38
27146;BME280;17980;51.744;7.190;2022-08-01T12:37:00;101335.43;;;27.83;66.56
27146;BME280;17980;51.744;7.190;2022-08-01T12:39:36;101340.27;;;27.33;68.75
27146;BME280;17980;51.744;7.190;2022-08-01T12:42:09;101329.58;;;27.42;67.75
27146;BME280;17980;51.744;7.190;2022-08-01T12:44:38;101337.02;;;27.94;64.83
27146;BME280;17980;51.744;7.190;2022-08-01T12:47:07;101333.61;;;27.22;67.27
27146;BME280;17980;51.744;7.190;2022-08-01T12:49:36;101338.17;;;26.76;67.90
27146;BME280;17980;51.744;7.190;2022-08-01T12:52:06;101334.17;;;27.77;66.97
27146;BME280;17980;51.744;7.190;2022-08-01T12:55:06;101327.28;;;27.53;66.84
27146;BME280;17980;51.744;7.190;2022-08-01T12:57:40;101326.16;;;27.54;65.72
27146;BME280;17980;51.744;7.190;2022-08-01T13:00:17;101336.47;;;27.37;66.96
27146;BME280;17980;51.744;7.190;2022-08-01T13:02:46;101325.01;;;27.96;65.96
27146;BME280;17980;51.744;7.190;2022-08-01T13:05:15;101327.98;;;27.46;67.50
27146;BME280;17980;51.744;7.190;2022-08-01T13:07:46;101339.67;;;27.31;67.37
27146;BME280;17980;51.744;7.190;2022-08-01T13:10:23;101327.97;;;28.04;64.64
27146;BME280;17980;51.744;7.190;2022-08-01T13:12:52;101329.30;;;27.98;64.59
27146;BME280;17980;51.744;7.190;2022-08-01T13:15:30;101331.62;;;28.36;62.82
27146;BME280;17980;51.744;7.190;2022-08-01T13:18:21;101329.88;;;27.31;66.06
27146;BME280;17980;51.744;7.190;2022-08-01T13:20:33;101334.22;;;28.40;63.93
27146;BME280;17980;51.744;7.190;2022-08-01T13:23:13;101333.68;;;27.94;63.91
27146;BME280;17980;51.744;7.190;2022-08-01T13:25:55;101337.38;;;27.97;63.33
27146;BME280;17980;51.744;7.190;2022-08-01T13:31:09;101336.87;;;28.15;63.79
27146;BME280;17980;51.744;7.190;2022-08-01T13:33:45;101333.17;;;27.97;63.94
27146;BME280;17980;51.744;7.190;2022-08-01T13:36:13;101333.48;;;29.00;60.55
27146;BME280;17980;51.744;7.190;2022-08-01T13:38:43;101326.34;;;29.34;59.16
27146;BME280;17980;51.744;7.190;2022-08-01T13:44:12;101330.58;;;28.59;60.65
27146;BME280;17980;51.744;7.190;2022-08-01T13:46:41;101338.64;;;28.36;60.64
27146;BME280;17980;51.744;7.190;2022-08-01T13:49:10;101334.48;;;27.78;63.80
27146;BME280;17980;51.744;7.190;2022-08-01T13:54:22;101336.81;;;28.12;64.07
27146;BME280;17980;51.744;7.190;2022-08-01T13:56:52;101331.20;;;28.27;63.97
27146;BME280;17980;51.744;7.190;2022-08-01T13:59:21;101335.27;;;28.36;64.67
27146;BME280;17980;51.744;7.190;2022-08-01T14:01:49;101331.66;;;27.92;64.18
27146;BME280;17980;51.744;7.190;2022-08-01T14:04:18;101338.48;;;28.28;63.55
27146;BME280;17980;51.744;7.190;2022-08-01T14:06:48;101337.02;;;28.23;64.25
27146;BME280;17980;51.744;7.190;2022-08-01T14:12:01;101330.42;;;28.14;64.19
27146;BME280;17980;51.744;7.190;2022-08-01T14:14:31;101330.69;;;27.29;67.21
27146;BME280;17980;51.744;7.190;2022-08-01T14:16:58;101334.17;;;27.77;66.78
27146;BME280;17980;51.744;7.190;2022-08-01T14:19:26;101327.01;;;28.29;64.04
27146;BME280;17980;51.744;7.190;2022-08-01T14:21:54;101331.42;;;27.79;64.60
27146;BME280;17980;51.744;7.190;2022-08-01T14:24:25;101323.05;;;28.11;64.30
27146;BME280;17980;51.744;7.190;2022-08-01T14:26:53;101330.57;;;28.08;62.92